Flight Track Log - Related Links

Times and Time Zones

All times are in EDT time to prevent confusion due to time zone crossing. See the ANO332 flight status page for this flight to view local times or setup timezone preferences in your user account.

Time Position Orientation Groundspeed Altitude Reporting Facility
EDT Latitude Longitude Course Direction KTS MPH feet Rate Location/Type
Fri 09:26:21 PM -12.4130 130.8770 108° East 59 68 100  Level FlightAware ADS-B
Fri 09:26:50 PM -12.4190 130.8940 110° East 162 186 200 1,200 Climbing FlightAware ADS-B
Fri 09:27:06 PM -12.4230 130.9050 110° East 161 185 1,000 2,757 Climbing FlightAware ADS-B
Fri 09:27:27 PM -12.4270 130.9190 106° East 149 171 1,900 1,765 Climbing FlightAware ADS-B
Fri 09:27:57 PM -12.4350 130.9410 106° East 184 212 2,500 1,313 Climbing FlightAware ADS-B
Fri 09:27:59 PM -12.4355 130.9427 106° East 161 185 2,600 3,000 Climbing Aus ATC (RADAR)
Fri 09:28:23 PM -12.4420 130.9640 107° East 187 215 3,800 1,778 Climbing FlightAware ADS-B
Fri 09:28:53 PM -12.4540 130.9920 114° Southeast 237 273 4,200 1,200 Climbing FlightAware ADS-B
Fri 09:29:08 PM -12.4670 131.0030 140° Southeast 248 285 4,700 2,400 Climbing FlightAware ADS-B
Fri 09:29:23 PM -12.4860 131.0050 174° South 259 298 5,400 2,600 Climbing FlightAware ADS-B
Fri 09:29:38 PM -12.5040 130.9990 198° South 283 326 6,000 1,929 Climbing FlightAware ADS-B
Fri 09:29:51 PM -12.5130 130.9900 224° Southwest 294 338 6,300 2,459 Climbing FlightAware ADS-B
Fri 09:30:39 PM -12.5506 130.9291 224° Southwest 298 343 8,500 2,294 Climbing Aus ATC (RADAR)
Fri 09:30:59 PM -12.5610 130.9130 224° Southwest 305 351 8,900 2,160 Climbing FlightAware ADS-B
Fri 09:31:29 PM -12.5890 130.8683 224° Southwest 308 354 10,300 2,182 Climbing Aus ATC (RADAR)
Fri 09:31:43 PM -12.6010 130.8490 224° Southwest 327 376 10,500 1,444 Climbing FlightAware ADS-B
Fri 09:32:23 PM -12.6350 130.7950 237° Southwest 335 386 11,600 1,950 Climbing FlightAware ADS-B
Fri 09:33:03 PM -12.6690 130.7420 237° Southwest 333 383 13,100 2,000 Climbing FlightAware ADS-B
Fri 09:33:38 PM -12.6990 130.6940 237° Southwest 344 396 14,100 1,920 Climbing FlightAware ADS-B
Fri 09:34:18 PM -12.7340 130.6380 237° Southwest 341 392 15,500 1,906 Climbing FlightAware ADS-B
Fri 09:35:03 PM -12.7760 130.5780 237° Southwest 346 398 16,800 1,826 Climbing FlightAware ADS-B
Fri 09:35:04 PM -12.7739 130.5766 237° Southwest 347 399 16,900 1,886 Climbing Aus ATC (RADAR)
Fri 09:35:38 PM -12.8230 130.5440 215° Southwest 355 409 17,900 1,459 Climbing FlightAware ADS-B
Fri 09:36:18 PM -12.8790 130.5100 211° Southwest 358 412 18,700 1,271 Climbing FlightAware ADS-B
Fri 09:37:03 PM -12.9470 130.4680 211° Southwest 364 419 19,700 1,304 Climbing FlightAware ADS-B
Fri 09:37:04 PM -12.9455 130.4679 211° Southwest 369 425 19,700 1,200 Level Aus ATC (RADAR)
Fri 09:37:43 PM -13.0053 130.4317 211° Southwest 374 430 20,500 1,231 Climbing Aus ATC (RADAR)
Fri 09:37:43 PM -13.0050 130.4320 211° Southwest 378 435 20,500 1,371 Level FlightAware ADS-B
Fri 09:38:18 PM -13.0583 130.3991 211° Southwest 379 436 21,300 1,350 Climbing Aus ATC (RADAR)
Fri 09:38:23 PM -13.0670 130.3950 211° Southwest 375 432 21,400 1,200 Climbing FlightAware ADS-B
Fri 09:38:53 PM -13.1119 130.3665 211° Southwest 382 440 22,000 1,333 Climbing Aus ATC (RADAR)
Fri 09:39:08 PM -13.1360 130.3520 211° Southwest 379 436 22,400 1,309 Climbing FlightAware ADS-B
Fri 09:39:48 PM -13.1980 130.3140 211° Southwest 382 440 23,200 1,200 Climbing FlightAware ADS-B
Fri 09:40:28 PM -13.2600 130.2760 211° Southwest 392 451 24,000 1,114 Climbing FlightAware ADS-B
Fri 09:40:58 PM -13.3054 130.2476 211° Southwest 392 451 24,500 900 Climbing Aus ATC (RADAR)
Fri 09:41:08 PM -13.3220 130.2380 211° Southwest 399 459 24,600 840 Climbing FlightAware ADS-B
Fri 09:41:48 PM -13.3880 130.1980 211° Southwest 398 458 25,200 815 Climbing FlightAware ADS-B
Fri 09:42:29 PM -13.4530 130.1570 212° Southwest 415 478 25,700 900 Climbing FlightAware ADS-B
Fri 09:43:08 PM -13.5190 130.1160 211° Southwest 416 479 26,400 1,000 Climbing FlightAware ADS-B
Fri 09:43:53 PM -13.5905 130.0710 211° Southwest 416 479 27,100 960 Climbing Aus ATC (RADAR)
Fri 09:43:58 PM -13.6020 130.0660 211° Southwest 412 474 27,200 857 Climbing FlightAware ADS-B
Fri 09:44:28 PM -13.6490 130.0350 211° Southwest 420 483 27,600 750 Climbing Aus ATC (RADAR)
Fri 09:44:38 PM -13.6680 130.0250 211° Southwest 418 481 27,700 941 Climbing FlightAware ADS-B
Fri 09:45:19 PM -13.7370 129.9820 211° Southwest 428 493 28,400 963 Climbing FlightAware ADS-B
Fri 09:45:59 PM -13.8050 129.9400 211° Southwest 433 498 29,000 904 Climbing FlightAware ADS-B
Fri 09:46:32 PM -13.8630 129.9037 211° Southwest 433 498 29,500 1,000 Climbing Aus ATC (RADAR)
Fri 09:46:59 PM -13.9090 129.8760 211° Southwest 432 497 30,000 469 Climbing FlightAware ADS-B
Fri 09:47:36 PM -13.9660 129.8410 211° Southwest 433 498 30,000  Level FlightAware ADS-B
Fri 09:48:22 PM -14.0330 129.7990 211° Southwest 433 498 30,000  Level FlightAware ADS-B
Fri 09:48:57 PM -14.1265 129.7404 211° Southwest 473 544 30,000  Level Aus ATC (RADAR)
Fri 09:49:00 PM -14.0880 129.7650 211° Southwest 433 498 30,000  Level FlightAware ADS-B
Fri 09:49:32 PM -14.1922 129.6995 211° Southwest 472 543 30,000  Level Aus ATC (RADAR)
Fri 09:49:36 PM -14.1410 129.7320 211° Southwest 433 498 30,000  Level FlightAware ADS-B
Fri 09:50:07 PM -14.2577 129.6587 211° Southwest 472 543 30,000  Level Aus ATC (RADAR)
Fri 09:50:24 PM -14.2110 129.6890 211° Southwest 433 498 30,000  Level FlightAware ADS-B
Fri 09:51:00 PM -14.2640 129.6560 211° Southwest 433 498 30,000  Level FlightAware ADS-B
Fri 09:51:32 PM -14.4175 129.5595 211° Southwest 474 545 30,000  Level Aus ATC (RADAR)
Fri 09:51:36 PM -14.3160 129.6240 211° Southwest 433 498 30,000  Level FlightAware ADS-B
Fri 09:52:07 PM -14.4827 129.5188 211° Southwest 471 542 30,000  Level Aus ATC (RADAR)
Fri 09:52:36 PM -14.4040 129.5690 211° Southwest 433 498 30,000  Level FlightAware ADS-B
Fri 09:53:13 PM -14.4580 129.5360 211° Southwest 433 498 30,000  Level FlightAware ADS-B
Fri 09:54:01 PM -14.5280 129.4920 211° Southwest 433 498 30,000  Level FlightAware ADS-B
Fri 09:54:37 PM -14.5800 129.4600 211° Southwest 433 498 30,000 -7,167 Level FlightAware ADS-B
Fri 09:54:37 PM -14.7561 129.3485 211° Southwest 440 506 25,700 -9,882 Descending Aus ATC (RADAR)
Fri 09:55:11 PM -14.8152 129.3113 211° Southwest 428 493 24,400 5,375 Descending Aus ATC (RADAR)
Fri 09:55:25 PM -14.6500 129.4160 211° Southwest 433 498 30,000 6,720 Climbing FlightAware ADS-B
Fri 09:56:01 PM -14.7030 129.3840 210° Southwest 433 498 30,000 -7,636 Level FlightAware ADS-B
Fri 09:56:31 PM -14.9448 129.2299 210° Southwest 407 468 21,600  Descending Aus ATC (RADAR)
Fri 09:56:37 PM -14.7550 129.3510 210° Southwest 433 498 30,000 84,000 Climbing FlightAware ADS-B
Fri 09:57:31 PM -15.0420 129.1721 210° Southwest 404 465 -33,333 Descending Aus ATC (RADAR)
Fri 10:00:35 PM -15.2255 129.0566 211° Southwest 300 98 Climbing Aus ATC (Calculated)
Fri 10:02:00 PM -15.3576 128.9733 211° Southwest  Level Estimated
Fri 10:03:00 PM -15.4508 128.9145 211° Southwest  Level Estimated
Fri 10:04:00 PM -15.5440 128.8556 211° Southwest  Level Estimated
Fri 10:05:00 PM -15.6372 128.7967 211° Southwest  Level Estimated
Fri 10:06:00 PM -15.7304 128.7377 211° Southwest  Level Estimated
Fri 10:07:00 PM -15.7781 128.7075 211° Southwest  Level Estimated
Fri 10:08:00 PM -15.7781 128.7075 North  Level Estimated
Fri 10:09:00 PM -15.7781 128.7075 North  Level Estimated
Fri 10:09:50 PM -15.7780 128.7074 120° Southeast  Level Aus ATC (Calculated)
Fri 10:10:00 PM -15.7781 128.7075 North  Level Estimated
Fri 10:11:00 PM -15.7781 128.7075 120° Southeast  Level Estimated
Fri 10:12:00 PM -15.7781 128.7075 North  Level Estimated
Fri 10:13:00 PM -15.7781 128.7075 North  Level Estimated
Fri 10:14:00 PM -15.7781 128.7075 North  Level Estimated

Login

Don't have an account? Register now (free) for customized features, flight alerts, and more!